Puget — AEQW — position and weather

sailwx.info

Track history (hours):
 
Tides and Currents Weather Stations Pressure Air Temp Water Temp Dewpoint Dewpoint Depression Visibility Wind Speed Wind Dir Waves Ship Positions

Puget

Last reported at 2017-Sep-18 15:54 UTC. Time now 2017-Sep-24 03:24 UTC.
Position N 47°40' W 122°24'.

Length 20 m; draft 0.2 m.

Type: Ship. MMSI: 369970510.

Date/timePositionNaut miles runAvg speedWind from/ knotsBaromVisibWave heightAir tempDewpointWater temp
2017-Sep-18 15:54N 47°40' W 122°24'0 0.0
2017-Sep-18 15:30N 47°40' W 122°24'0 0.0
2017-Sep-18 15:00N 47°40' W 122°24'0 0.0
2017-Sep-18 14:30N 47°40' W 122°24'  
2017-Sep-14 22:28N 47°40' W 122°24'0 0.4
2017-Sep-14 22:00N 47°40' W 122°24'0 0.0
2017-Sep-14 21:30N 47°40' W 122°24'0 0.0
2017-Sep-14 21:00N 47°40' W 122°24'0 0.4
2017-Sep-14 20:30N 47°40' W 122°24'0 0.1
2017-Sep-14 20:00N 47°40' W 122°24'2 3.8
2017-Sep-14 19:30N 47°39' W 122°27'4 8.9
2017-Sep-14 19:00N 47°36' W 122°22'1 2.6
2017-Sep-14 18:30N 47°35' W 122°20'0 0.6
2017-Sep-14 18:00N 47°35' W 122°21'4 7.3
2017-Sep-14 17:30N 47°34' W 122°26'4 9.0
2017-Sep-14 17:00N 47°30' W 122°24'5 9.2
2017-Sep-14 16:30N 47°25' W 122°23'4 7.6
2017-Sep-14 16:00N 47°21' W 122°23'4 8.4
2017-Sep-14 15:30N 47°18' W 122°27'2 3.9
2017-Sep-14 15:00N 47°17' W 122°25'0 0.0
2017-Sep-13 23:23N 47°17' W 122°25'2 5.0
2017-Sep-13 23:00N 47°16' W 122°23'0 0.5
2017-Sep-13 22:22N 47°15' W 122°22'1 1.4
2017-Sep-13 22:00N 47°16' W 122°23'2 3.9
2017-Sep-13 21:30N 47°17' W 122°25'1 1.7
2017-Sep-13 21:00N 47°16' W 122°25'1 1.4
2017-Sep-13 20:30N 47°16' W 122°25'1 2.0
2017-Sep-13 20:01N 47°16' W 122°26'0 0.1
2017-Sep-13 19:30N 47°16' W 122°26'0 0.0
2017-Sep-13 19:01N 47°16' W 122°26'0 0.3
2017-Sep-13 18:31N 47°15' W 122°26'1 1.1
2017-Sep-13 18:01N 47°16' W 122°26'2 2.9
2017-Sep-13 17:26N 47°17' W 122°25'1 0.7
2017-Sep-13 15:41N 47°17' W 122°23'1 4.3
2017-Sep-13 15:28N 47°17' W 122°25'0 0.3
2017-Sep-13 15:00N 47°17' W 122°25'0 0.0
2017-Sep-12 22:42N 47°17' W 122°25'1 4.8
2017-Sep-12 22:30N 47°17' W 122°26'3 6.2
2017-Sep-12 22:00N 47°18' W 122°30'2 2.9
2017-Sep-12 21:28N 47°18' W 122°32'2 3.4
2017-Sep-12 21:00N 47°16' W 122°33'3 6.2
2017-Sep-12 20:30N 47°19' W 122°33'4 7.4
2017-Sep-12 20:00N 47°23' W 122°32'4 7.4
2017-Sep-12 19:30N 47°27' W 122°32'1 2.4
2017-Sep-12 19:00N 47°28' W 122°32'0 0.2
2017-Sep-12 18:30N 47°28' W 122°32'3 5.9
2017-Sep-12 18:00N 47°30' W 122°30'3 5.9
2017-Sep-12 17:30N 47°29' W 122°26'3 5.7
2017-Sep-12 17:00N 47°26' W 122°24'3 6.2
2017-Sep-12 16:30N 47°24' W 122°21'4 7.0
2017-Sep-12 16:00N 47°21' W 122°23'4 8.1
2017-Sep-12 15:30N 47°18' W 122°27'2 3.1
2017-Sep-12 14:55N 47°17' W 122°25'0 0.0
2017-Sep-11 22:41N 47°17' W 122°25'1 5.8
2017-Sep-11 22:30N 47°17' W 122°26'3 6.2
2017-Sep-11 22:00N 47°19' W 122°30'2 3.7
2017-Sep-11 21:30N 47°18' W 122°33'1 1.1
2017-Sep-11 21:00N 47°19' W 122°33'2 3.2
2017-Sep-11 20:30N 47°20' W 122°33'2 4.6
2017-Sep-11 20:00N 47°22' W 122°32'3 5.2
2017-Sep-11 19:30N 47°25' W 122°32'3 5.1
2017-Sep-11 19:00N 47°27' W 122°31'3 5.8
2017-Sep-11 18:30N 47°30' W 122°29'3 6.2
2017-Sep-11 18:00N 47°33' W 122°27'4 8.4
2017-Sep-11 17:30N 47°36' W 122°23'1 2.3
2017-Sep-11 17:00N 47°37' W 122°22'4 7.9
2017-Sep-11 16:30N 47°40' W 122°27'2 3.8
2017-Sep-11 16:01N 47°40' W 122°24'0 1.0
2017-Sep-11 15:30N 47°40' W 122°23'0 0.0
2017-Sep-11 15:00N 47°40' W 122°23'  
Track history (hours):
 
Tides and Currents Weather Stations Pressure Air Temp Water Temp Dewpoint Dewpoint Depression Visibility Wind Speed Wind Dir Waves Ship Positions

Puget

Last reported at 2017-Sep-18 15:54 UTC. Time now 2017-Sep-24 03:24 UTC.
Position N 47°40' W 122°24'.

Length 20 m; draft 0.2 m.

Type: Ship. MMSI: 369970510.

Date/timePositionNaut miles runAvg speedWind from/ knotsBaromVisibWave heightAir tempDewpointWater temp
2017-Sep-18 15:54N 47°40' W 122°24'0 0.0
2017-Sep-18 15:30N 47°40' W 122°24'0 0.0
2017-Sep-18 15:00N 47°40' W 122°24'0 0.0
2017-Sep-18 14:30N 47°40' W 122°24'  
2017-Sep-14 22:28N 47°40' W 122°24'0 0.4
2017-Sep-14 22:00N 47°40' W 122°24'0 0.0
2017-Sep-14 21:30N 47°40' W 122°24'0 0.0
2017-Sep-14 21:00N 47°40' W 122°24'0 0.4
2017-Sep-14 20:30N 47°40' W 122°24'0 0.1
2017-Sep-14 20:00N 47°40' W 122°24'2 3.8
2017-Sep-14 19:30N 47°39' W 122°27'4 8.9
2017-Sep-14 19:00N 47°36' W 122°22'1 2.6
2017-Sep-14 18:30N 47°35' W 122°20'0 0.6
2017-Sep-14 18:00N 47°35' W 122°21'4 7.3
2017-Sep-14 17:30N 47°34' W 122°26'4 9.0
2017-Sep-14 17:00N 47°30' W 122°24'5 9.2
2017-Sep-14 16:30N 47°25' W 122°23'4 7.6
2017-Sep-14 16:00N 47°21' W 122°23'4 8.4
2017-Sep-14 15:30N 47°18' W 122°27'2 3.9
2017-Sep-14 15:00N 47°17' W 122°25'0 0.0
2017-Sep-13 23:23N 47°17' W 122°25'2 5.0
2017-Sep-13 23:00N 47°16' W 122°23'0 0.5
2017-Sep-13 22:22N 47°15' W 122°22'1 1.4
2017-Sep-13 22:00N 47°16' W 122°23'2 3.9
2017-Sep-13 21:30N 47°17' W 122°25'1 1.7
2017-Sep-13 21:00N 47°16' W 122°25'1 1.4
2017-Sep-13 20:30N 47°16' W 122°25'1 2.0
2017-Sep-13 20:01N 47°16' W 122°26'0 0.1
2017-Sep-13 19:30N 47°16' W 122°26'0 0.0
2017-Sep-13 19:01N 47°16' W 122°26'0 0.3
2017-Sep-13 18:31N 47°15' W 122°26'1 1.1
2017-Sep-13 18:01N 47°16' W 122°26'2 2.9
2017-Sep-13 17:26N 47°17' W 122°25'1 0.7
2017-Sep-13 15:41N 47°17' W 122°23'1 4.3
2017-Sep-13 15:28N 47°17' W 122°25'0 0.3
2017-Sep-13 15:00N 47°17' W 122°25'0 0.0
2017-Sep-12 22:42N 47°17' W 122°25'1 4.8
2017-Sep-12 22:30N 47°17' W 122°26'3 6.2
2017-Sep-12 22:00N 47°18' W 122°30'2 2.9
2017-Sep-12 21:28N 47°18' W 122°32'2 3.4
2017-Sep-12 21:00N 47°16' W 122°33'3 6.2
2017-Sep-12 20:30N 47°19' W 122°33'4 7.4
2017-Sep-12 20:00N 47°23' W 122°32'4 7.4
2017-Sep-12 19:30N 47°27' W 122°32'1 2.4
2017-Sep-12 19:00N 47°28' W 122°32'0 0.2
2017-Sep-12 18:30N 47°28' W 122°32'3 5.9
2017-Sep-12 18:00N 47°30' W 122°30'3 5.9
2017-Sep-12 17:30N 47°29' W 122°26'3 5.7
2017-Sep-12 17:00N 47°26' W 122°24'3 6.2
2017-Sep-12 16:30N 47°24' W 122°21'4 7.0
2017-Sep-12 16:00N 47°21' W 122°23'4 8.1
2017-Sep-12 15:30N 47°18' W 122°27'2 3.1
2017-Sep-12 14:55N 47°17' W 122°25'0 0.0
2017-Sep-11 22:41N 47°17' W 122°25'1 5.8
2017-Sep-11 22:30N 47°17' W 122°26'3 6.2
2017-Sep-11 22:00N 47°19' W 122°30'2 3.7
2017-Sep-11 21:30N 47°18' W 122°33'1 1.1
2017-Sep-11 21:00N 47°19' W 122°33'2 3.2
2017-Sep-11 20:30N 47°20' W 122°33'2 4.6
2017-Sep-11 20:00N 47°22' W 122°32'3 5.2
2017-Sep-11 19:30N 47°25' W 122°32'3 5.1
2017-Sep-11 19:00N 47°27' W 122°31'3 5.8
2017-Sep-11 18:30N 47°30' W 122°29'3 6.2
2017-Sep-11 18:00N 47°33' W 122°27'4 8.4
2017-Sep-11 17:30N 47°36' W 122°23'1 2.3
2017-Sep-11 17:00N 47°37' W 122°22'4 7.9
2017-Sep-11 16:30N 47°40' W 122°27'2 3.8
2017-Sep-11 16:01N 47°40' W 122°24'0 1.0
2017-Sep-11 15:30N 47°40' W 122°23'0 0.0
2017-Sep-11 15:00N 47°40' W 122°23'  

Dump ship's entire track history